Fernwood, Washington
Current Conditions -  °F | °C
As of 4:35 AM on Monday 20 Oct 2014 (Local Time) from KPWT Reporting Station
Overcast Overcast  
Wind Chill: 14°   Ceiling: 2700
Heat Index: 14°   Visibility: 10mi
Dew Point: 13°   Wind: 8mph
Humidity: 94%   Direction: 180°S
Pressure: 29.71"   Gusts: NA
Location:  47.5378°N, 122.589°W
Report Text: KPWT 201135Z AUTO 18007KT 10SM BKN027 OVC032 14/13 A2971 RMK AO1 P0004
Loading
Personal Weather Stations






























Interactive Weather Map
Tropical Storm Tracking
New forecast layout! Learn more

10-Day Weather Forecast

Advertisements
Track Severe Weather on mobile